Time;durP1;ratioP1;P1;durP2;ratioP2;P2;SDS_P1;SDS_P2;PMS_P1;PMS_P2;Temp;Humidity;BMP_temperature;BMP_pressure;BME280_temperature;BME280_humidity;BME280_pressure;Samples;Min_cycle;Max_cycle;Signal;HPM_P1;HPM_P2
2022/04/20 00:00:17;;;;;;;3.00;1.60;;;;;;;19.83;27.35;101196.53;5087215;28;20042;-68
2022/04/20 00:02:43;;;;;;;2.83;1.38;;;;;;;19.80;26.56;101200.47;5083211;28;20020;-68
2022/04/20 00:05:08;;;;;;;3.17;1.33;;;;;;;19.77;26.93;101195.38;5076192;28;20029;-68
2022/04/20 00:07:34;;;;;;;3.58;2.22;;;;;;;19.74;27.18;101195.72;5058774;28;20023;-68
2022/04/20 00:09:59;;;;;;;3.42;1.80;;;;;;;19.70;26.83;101194.41;5059095;28;20047;-68
2022/04/20 00:12:25;;;;;;;3.45;1.45;;;;;;;19.68;27.71;101193.75;5075862;28;20389;-68
2022/04/20 00:14:51;;;;;;;5.13;1.80;;;;;;;19.64;27.55;101197.84;5075969;28;20028;-68
2022/04/20 00:17:16;;;;;;;4.18;1.40;;;;;;;19.60;27.98;101191.91;5075709;28;20621;-68
2022/04/20 00:19:42;;;;;;;3.33;1.75;;;;;;;19.57;27.21;101196.88;5076983;28;20051;-68
2022/04/20 00:22:07;;;;;;;3.70;1.67;;;;;;;19.54;27.65;101189.09;5076727;28;20021;-68
2022/04/20 00:24:32;;;;;;;5.47;1.77;;;;;;;19.50;27.54;101193.16;5075386;28;20504;-68
2022/04/20 00:26:58;;;;;;;3.80;1.45;;;;;;;19.50;27.02;101198.59;5076712;28;20048;-68
2022/04/20 00:29:23;;;;;;;4.18;2.03;;;;;;;19.46;27.50;101197.25;5076854;28;20487;-68
2022/04/20 00:31:48;;;;;;;3.45;1.75;;;;;;;19.42;27.88;101198.66;5076489;28;20535;-68
2022/04/20 00:34:14;;;;;;;3.30;1.85;;;;;;;19.36;27.26;101192.03;5075264;28;20028;-68
2022/04/20 00:36:39;;;;;;;1.52;1.40;;;;;;;19.33;27.78;101197.81;5075516;28;20047;-67
2022/04/20 00:39:04;;;;;;;3.15;1.52;;;;;;;19.29;27.18;101201.88;5076676;28;20028;-68
2022/04/20 00:41:30;;;;;;;4.47;1.98;;;;;;;19.25;27.47;101197.00;5076812;28;20063;-68
2022/04/20 00:43:55;;;;;;;2.78;1.60;;;;;;;19.22;27.90;101208.22;5074545;28;20024;-68
2022/04/20 00:46:22;;;;;;;3.92;1.60;;;;;;;19.18;27.55;101199.56;5075352;28;20016;-68
2022/04/20 00:48:47;;;;;;;2.28;1.50;;;;;;;19.14;27.58;101209.94;5075309;28;20426;-68
2022/04/20 00:51:13;;;;;;;3.22;1.75;;;;;;;19.13;27.70;101213.66;5075691;28;20024;-68
2022/04/20 00:53:38;;;;;;;2.55;1.67;;;;;;;19.10;27.93;101214.03;5075952;28;20056;-68
2022/04/20 00:56:04;;;;;;;1.98;1.42;;;;;;;19.09;27.31;101217.78;5074868;28;20363;-68
2022/04/20 00:58:29;;;;;;;2.40;1.50;;;;;;;19.08;27.32;101217.94;5075264;28;20032;-67
2022/04/20 01:00:54;;;;;;;2.17;1.27;;;;;;;19.06;27.70;101219.97;5057946;28;20440;-68
2022/04/20 01:03:20;;;;;;;2.65;1.48;;;;;;;19.03;28.05;101212.19;5075062;28;20029;-68
2022/04/20 01:05:45;;;;;;;2.97;1.88;;;;;;;19.01;28.22;101214.25;5058187;28;20036;-68
2022/04/20 01:08:11;;;;;;;4.95;1.38;;;;;;;18.99;27.94;101214.41;5076057;28;20074;-68
2022/04/20 01:10:36;;;;;;;2.70;1.38;;;;;;;18.95;28.01;101221.22;5075755;28;20028;-68
2022/04/20 01:13:02;;;;;;;6.85;1.83;;;;;;;18.90;28.22;101223.56;5074936;28;20032;-68
2022/04/20 01:15:27;;;;;;;3.45;1.52;;;;;;;18.85;28.46;101220.53;5076204;28;20100;-68
2022/04/20 01:17:53;;;;;;;3.72;1.30;;;;;;;18.79;27.52;101221.22;5074425;28;20025;-69
2022/04/20 01:20:18;;;;;;;2.65;1.63;;;;;;;18.71;28.62;101221.25;5074226;28;20154;-68
2022/04/20 01:22:43;;;;;;;2.85;1.52;;;;;;;18.62;28.97;101214.13;5074646;28;20106;-68
2022/04/20 01:25:09;;;;;;;2.78;1.48;;;;;;;18.55;28.15;101215.84;5074534;28;20385;-69
2022/04/20 01:27:35;;;;;;;2.47;1.60;;;;;;;18.50;28.94;101215.50;5075672;28;20118;-68
2022/04/20 01:30:01;;;;;;;6.07;1.45;;;;;;;18.46;28.85;101219.53;5074574;28;20546;-67
2022/04/20 01:32:26;;;;;;;3.17;1.25;;;;;;;18.43;29.52;101223.44;5074147;28;20088;-68
2022/04/20 01:34:52;;;;;;;3.38;1.65;;;;;;;18.41;28.99;101224.63;5074264;28;20082;-68
2022/04/20 01:37:18;;;;;;;3.78;1.40;;;;;;;18.38;28.18;101216.84;5075602;28;20028;-68
2022/04/20 01:39:43;;;;;;;4.60;1.50;;;;;;;18.37;29.18;101215.16;5074116;28;20503;-68
2022/04/20 01:42:10;;;;;;;2.00;1.38;;;;;;;18.35;28.57;101209.03;5075255;28;20025;-68
2022/04/20 01:44:36;;;;;;;2.75;1.55;;;;;;;18.34;28.83;101210.06;5075091;28;20485;-68
2022/04/20 01:47:01;;;;;;;1.48;1.13;;;;;;;18.34;28.56;101213.59;5074190;28;20025;-68
2022/04/20 01:49:27;;;;;;;2.67;1.60;;;;;;;18.32;28.27;101207.50;5073754;28;20085;-68
2022/04/20 01:51:54;;;;;;;4.60;2.22;;;;;;;18.32;29.05;101206.66;5074758;28;20048;-68
2022/04/20 01:54:19;;;;;;;5.50;1.73;;;;;;;18.30;28.49;101208.72;5074464;28;20074;-68
2022/04/20 01:56:46;;;;;;;3.30;1.67;;;;;;;18.28;29.46;101203.47;5073700;28;20028;-67
2022/04/20 01:59:12;;;;;;;3.92;1.52;;;;;;;18.26;28.68;101213.63;5073901;28;20401;-68
2022/04/20 02:04:21;;;;;;;3.55;1.60;;;;;;;18.21;28.95;101220.56;5074613;28;20042;-68
2022/04/20 02:06:47;;;;;;;5.50;1.30;;;;;;;18.20;29.37;101219.72;5073699;28;20107;-68
2022/04/20 02:09:12;;;;;;;1.65;1.40;;;;;;;18.19;29.26;101217.19;5073516;28;20035;-68
2022/04/20 02:11:38;;;;;;;5.90;1.50;;;;;;;18.17;28.89;101219.22;5073403;28;20027;-68
2022/04/20 02:14:04;;;;;;;6.95;1.65;;;;;;;18.17;28.93;101219.22;5072568;28;20020;-68
2022/04/20 02:16:29;;;;;;;1.67;1.00;;;;;;;18.15;29.60;101213.09;5074594;28;20047;-68
2022/04/20 02:18:56;;;;;;;4.97;1.55;;;;;;;18.14;28.90;101216.84;5073362;28;20028;-68
2022/04/20 02:21:21;;;;;;;7.30;1.33;;;;;;;18.11;29.42;101214.47;5073151;28;20020;-68
2022/04/20 02:23:46;;;;;;;3.47;1.13;;;;;;;18.10;29.44;101219.03;5072939;28;20043;-67
2022/04/20 02:26:12;;;;;;;4.75;1.25;;;;;;;18.05;29.74;101221.41;5073235;28;20435;-68
2022/04/20 02:28:37;;;;;;;3.08;1.35;;;;;;;17.99;29.67;101217.50;5073215;28;20509;-69
2022/04/20 02:31:02;;;;;;;3.88;1.40;;;;;;;17.95;29.51;101218.84;5073077;28;20036;-68
2022/04/20 02:33:28;;;;;;;3.10;1.33;;;;;;;17.89;28.83;101222.25;5072812;28;20016;-68
2022/04/20 02:35:53;;;;;;;2.00;1.38;;;;;;;17.81;28.77;101224.09;5073967;28;20494;-68
2022/04/20 02:38:19;;;;;;;3.72;1.25;;;;;;;17.72;29.73;101227.78;5073199;28;20470;-67
2022/04/20 02:40:45;;;;;;;1.40;1.17;;;;;;;17.62;29.19;101230.63;5056656;28;20036;-68
2022/04/20 02:43:11;;;;;;;1.48;1.15;;;;;;;17.51;29.24;101228.19;5056178;28;20129;-68
2022/04/20 02:45:37;;;;;;;3.13;1.52;;;;;;;17.40;29.54;101236.63;5073037;28;20023;-67
2022/04/20 02:48:03;;;;;;;3.78;1.40;;;;;;;17.32;30.40;101239.28;5074093;28;20040;-68
2022/04/20 02:50:29;;;;;;;1.92;1.30;;;;;;;17.26;29.73;101232.66;5073008;28;20458;-68
2022/04/20 02:52:55;;;;;;;2.53;1.48;;;;;;;17.21;29.55;101243.13;5072656;28;20127;-68
2022/04/20 02:55:20;;;;;;;3.08;1.73;;;;;;;17.18;30.37;101239.91;5072834;28;20027;-69
2022/04/20 02:57:45;;;;;;;3.53;1.52;;;;;;;17.14;30.10;101241.25;5073909;28;20020;-68
2022/04/20 03:00:11;;;;;;;1.92;1.40;;;;;;;17.13;29.38;101234.13;5072773;28;20077;-68
2022/04/20 03:02:37;;;;;;;3.05;1.27;;;;;;;17.11;30.38;101233.44;5073987;28;20470;-67
2022/04/20 03:05:02;;;;;;;3.70;1.60;;;;;;;17.11;29.51;101236.16;5072980;28;20031;-68
2022/04/20 03:07:27;;;;;;;2.03;1.27;;;;;;;17.10;30.96;101237.16;5073883;28;20116;-69
2022/04/20 03:09:53;;;;;;;3.65;1.45;;;;;;;17.09;29.53;101233.59;5073357;28;20029;-68
2022/04/20 03:12:18;;;;;;;2.80;1.50;;;;;;;17.07;29.51;101242.88;5073485;28;20017;-68
2022/04/20 03:14:43;;;;;;;1.63;1.23;;;;;;;17.05;30.76;101236.78;5073738;28;20028;-67
2022/04/20 03:17:09;;;;;;;4.40;1.65;;;;;;;17.03;30.69;101238.81;5073998;28;20024;-67
2022/04/20 03:19:34;;;;;;;14.00;2.22;;;;;;;17.02;31.03;101242.53;5055724;28;20077;-68
2022/04/20 03:22:00;;;;;;;2.65;1.05;;;;;;;17.00;30.88;101247.25;5055662;28;20032;-67
2022/04/20 03:24:26;;;;;;;1.50;1.15;;;;;;;16.97;31.24;101250.28;5074144;28;20025;-66
2022/04/20 03:26:51;;;;;;;5.63;1.63;;;;;;;16.96;29.75;101254.00;5076661;28;20021;-68
2022/04/20 03:29:16;;;;;;;2.17;1.30;;;;;;;16.94;30.36;101253.31;5077764;28;20024;-68
2022/04/20 03:31:42;;;;;;;6.30;1.65;;;;;;;16.92;30.55;101258.03;5077620;28;20519;-68
2022/04/20 03:34:07;;;;;;;4.10;1.27;;;;;;;16.92;29.71;101263.44;5077557;28;20051;-68
2022/04/20 03:36:34;;;;;;;1.48;1.10;;;;;;;16.89;30.48;101261.88;5076705;28;20466;-67
2022/04/20 03:39:00;;;;;;;2.75;1.40;;;;;;;16.88;30.46;101268.31;5076481;28;20032;-68
2022/04/20 03:41:25;;;;;;;5.72;1.30;;;;;;;16.85;31.29;101271.34;5076337;28;20389;-68
2022/04/20 03:43:51;;;;;;;1.80;1.20;;;;;;;16.83;30.17;101266.06;5077280;28;20025;-68
2022/04/20 03:46:21;;;;;;;4.63;1.52;;;;;;;16.81;31.21;101273.50;5078458;28;20047;-67
2022/04/20 03:48:46;;;;;;;1.52;1.20;;;;;;;16.78;31.03;101273.81;5077292;28;20095;-68
2022/04/20 03:51:12;;;;;;;7.10;1.65;;;;;;;16.78;29.95;101273.81;5076082;28;20493;-67
2022/04/20 03:53:37;;;;;;;4.38;1.48;;;;;;;16.75;30.84;101274.13;5075770;28;20444;-68
2022/04/20 03:56:03;;;;;;;2.05;1.40;;;;;;;16.74;30.95;101283.28;5076082;28;20025;-68
2022/04/20 03:58:29;;;;;;;4.07;1.67;;;;;;;16.72;29.97;101281.75;5076200;28;20024;-68
2022/04/20 04:00:54;;;;;;;4.00;1.70;;;;;;;16.69;30.69;101285.63;5076004;28;20389;-68
2022/04/20 04:03:19;;;;;;;3.53;1.63;;;;;;;16.66;30.28;101285.94;5076878;28;20028;-67
2022/04/20 04:05:45;;;;;;;4.15;1.42;;;;;;;16.65;31.38;101284.22;5075739;28;20032;-68
2022/04/20 04:08:10;;;;;;;2.38;1.25;;;;;;;16.63;30.84;101288.09;5075708;28;20420;-68
2022/04/20 04:10:35;;;;;;;4.40;1.50;;;;;;;16.58;30.09;101283.13;5076757;28;20066;-68
2022/04/20 04:13:01;;;;;;;6.93;1.52;;;;;;;16.56;31.15;101285.16;5075620;28;20082;-68
2022/04/20 04:15:28;;;;;;;5.72;1.55;;;;;;;16.53;30.95;101296.28;5076500;28;20511;-68
2022/04/20 04:17:54;;;;;;;8.93;1.75;;;;;;;16.47;31.25;101287.94;5075199;28;20021;-67
2022/04/20 04:20:23;;;;;;;3.40;1.85;;;;;;;16.49;30.47;101296.72;5076519;28;20025;-68
2022/04/20 04:22:50;;;;;;;2.47;1.27;;;;;;;16.47;30.57;101302.28;5074805;28;20033;-68
2022/04/20 04:25:15;;;;;;;1.60;1.27;;;;;;;16.42;31.34;101299.19;5075327;28;20442;-68
2022/04/20 04:27:41;;;;;;;2.30;1.42;;;;;;;16.42;31.70;101301.91;5075304;28;20051;-68
2022/04/20 04:30:07;;;;;;;2.40;1.38;;;;;;;16.40;31.73;101312.03;5058480;28;20067;-67
2022/04/20 04:32:32;;;;;;;3.83;1.60;;;;;;;16.37;31.74;101306.94;5076261;28;20024;-69
2022/04/20 04:34:57;;;;;;;1.63;1.27;;;;;;;16.36;30.95;101307.91;5075544;28;20037;-68
2022/04/20 04:37:23;;;;;;;3.90;1.20;;;;;;;16.35;30.85;101314.34;5075267;28;20493;-67
2022/04/20 04:39:48;;;;;;;4.40;1.25;;;;;;;16.33;31.63;101310.97;5076472;28;20505;-68
2022/04/20 04:42:14;;;;;;;2.97;1.63;;;;;;;16.29;31.62;101310.41;5075853;28;20039;-68
2022/04/20 04:44:39;;;;;;;2.05;1.45;;;;;;;16.29;32.09;101314.97;5076063;28;20020;-68
2022/04/20 04:49:49;;;;;;;3.33;1.30;;;;;;;16.25;30.81;101318.97;5076067;28;20104;-68
2022/04/20 04:52:14;;;;;;;3.95;1.65;;;;;;;16.25;30.82;101324.38;5075773;28;20123;-68
2022/04/20 04:54:40;;;;;;;3.95;1.70;;;;;;;16.24;31.44;101325.41;5058192;28;20115;-67
2022/04/20 04:57:09;;;;;;;2.40;1.58;;;;;;;16.22;30.87;101317.41;5057953;28;20447;-68
2022/04/20 04:59:41;;;;;;;1.98;1.35;;;;;;;16.22;30.97;101320.13;5075815;28;20031;-68
2022/04/20 05:02:07;;;;;;;1.55;1.25;;;;;;;16.24;31.22;101325.41;5074493;28;20383;-68
2022/04/20 05:04:39;;;;;;;3.67;1.45;;;;;;;16.25;30.97;101321.66;5074298;28;20029;-68
2022/04/20 05:07:04;;;;;;;1.58;1.48;;;;;;;16.29;31.05;101323.94;5073975;28;20028;-68
2022/04/20 05:09:30;;;;;;;3.05;1.38;;;;;;;16.35;31.15;101330.56;5074220;28;20363;-68
2022/04/20 05:11:56;;;;;;;6.15;1.35;;;;;;;16.41;32.08;101329.97;5075464;28;20419;-68
2022/04/20 05:14:21;;;;;;;2.55;1.48;;;;;;;16.47;30.75;101329.31;5075681;28;20050;-68
2022/04/20 05:16:46;;;;;;;2.83;1.70;;;;;;;16.54;31.62;101333.16;5074048;28;20099;-68
2022/04/20 05:19:12;;;;;;;2.47;1.45;;;;;;;16.61;30.83;101326.09;5075265;28;20029;-68
2022/04/20 05:21:37;;;;;;;3.58;1.60;;;;;;;16.68;31.47;101326.34;5057448;28;20452;-68
2022/04/20 05:24:03;;;;;;;2.28;1.40;;;;;;;16.78;30.48;101333.34;5074285;28;20031;-67
2022/04/20 05:26:29;;;;;;;4.57;1.70;;;;;;;16.88;31.86;101325.16;5075136;28;20024;-68
2022/04/20 05:28:54;;;;;;;2.88;1.60;;;;;;;16.99;31.88;101330.31;5075140;28;20024;-68
2022/04/20 05:31:20;;;;;;;1.85;1.45;;;;;;;17.10;30.82;101331.91;5075087;28;20028;-69
2022/04/20 05:33:45;;;;;;;2.63;1.45;;;;;;;17.22;31.04;101333.34;5075340;28;20020;-69
2022/04/20 05:36:11;;;;;;;4.07;1.55;;;;;;;17.32;31.41;101334.06;5057106;28;20055;-68
2022/04/20 05:43:53;;;;;;;2.45;1.77;;;;;;;17.72;30.76;101341.59;5074452;28;20119;-69
2022/04/20 05:46:18;;;;;;;1.55;1.42;;;;;;;17.82;31.55;101339.59;5074834;28;20067;-69
2022/04/20 05:48:43;;;;;;;2.65;1.50;;;;;;;17.93;31.02;101332.03;5056653;28;20027;-68
2022/04/20 05:51:09;;;;;;;3.10;1.50;;;;;;;18.08;30.16;101339.53;5058084;28;20502;-67
2022/04/20 05:53:35;;;;;;;3.15;1.60;;;;;;;18.19;31.33;101342.78;5075212;28;20048;-69
2022/04/20 05:56:00;;;;;;;4.57;1.60;;;;;;;18.33;30.77;101344.00;5095326;28;20052;-68
2022/04/20 05:58:25;;;;;;;3.00;1.55;;;;;;;18.49;29.90;101338.63;5076985;28;20019;-68
2022/04/20 06:00:51;;;;;;;2.85;1.80;;;;;;;18.66;30.62;101340.31;5087922;28;20021;-68
2022/04/20 06:03:16;;;;;;;8.10;1.92;;;;;;;18.83;30.48;101344.75;5074554;28;20184;-68
2022/04/20 06:05:41;;;;;;;5.97;1.52;;;;;;;19.02;30.06;101347.09;5074816;28;20044;-67
2022/04/20 06:08:07;;;;;;;4.97;1.60;;;;;;;19.24;30.39;101344.69;5074687;28;20024;-68
2022/04/20 06:10:33;;;;;;;2.55;1.65;;;;;;;19.40;30.69;101353.69;5092438;28;20040;-68
2022/04/20 06:12:59;;;;;;;5.28;1.60;;;;;;;19.55;30.17;101351.97;5095055;28;20484;-68
2022/04/20 06:15:24;;;;;;;2.80;1.83;;;;;;;19.71;30.48;101348.31;5094828;28;20028;-68
2022/04/20 06:17:50;;;;;;;5.18;1.85;;;;;;;19.84;30.54;101351.34;5094707;28;20027;-68
2022/04/20 06:20:15;;;;;;;2.22;1.65;;;;;;;19.98;30.18;101356.03;5093507;28;20462;-67
2022/04/20 06:22:40;;;;;;;4.00;1.60;;;;;;;20.10;29.92;101349.16;5094531;28;20024;-69
2022/04/20 06:25:06;;;;;;;5.35;1.85;;;;;;;20.22;30.02;101342.31;5094278;28;20024;-68
2022/04/20 06:27:32;;;;;;;6.15;1.88;;;;;;;20.35;29.42;101351.78;5082121;28;20031;-67
2022/04/20 06:29:58;;;;;;;2.67;1.75;;;;;;;20.47;29.65;101350.34;5056485;28;20024;-68
2022/04/20 06:32:24;;;;;;;3.72;1.63;;;;;;;20.60;29.67;101350.59;5073097;28;20063;-68
2022/04/20 06:34:53;;;;;;;2.88;2.30;;;;;;;20.72;29.65;101354.56;5072967;28;20052;-67
2022/04/20 06:37:19;;;;;;;4.88;1.83;;;;;;;20.83;28.96;101357.72;5072734;28;20055;-68
2022/04/20 06:39:45;;;;;;;3.75;1.33;;;;;;;20.97;29.17;101353.34;5074261;28;20028;-68
2022/04/20 06:42:10;;;;;;;3.20;1.55;;;;;;;21.11;29.69;101344.38;5074298;28;20081;-68
2022/04/20 06:44:36;;;;;;;6.50;1.42;;;;;;;21.22;29.09;101346.66;5074282;28;20025;-67
2022/04/20 06:47:02;;;;;;;5.53;1.80;;;;;;;21.37;28.93;101349.41;5072759;28;20085;-68
2022/04/20 06:49:29;;;;;;;7.18;1.90;;;;;;;21.51;29.17;101355.91;5073302;28;20097;-67
2022/04/20 07:00:08;;;;;;;2.90;1.80;;;;;;;22.08;28.65;101342.47;5072662;28;20031;-67
2022/04/20 07:02:34;;;;;;;3.60;1.90;;;;;;;22.22;28.38;101339.66;5074278;28;20029;-68
2022/04/20 07:04:59;;;;;;;4.50;1.83;;;;;;;22.36;28.19;101344.25;5072310;28;20086;-67
2022/04/20 07:07:25;;;;;;;7.63;2.20;;;;;;;22.49;28.50;101336.22;5072315;28;20016;-67
2022/04/20 07:09:50;;;;;;;9.52;1.98;;;;;;;22.58;28.73;101335.00;5073891;28;20389;-67
2022/04/20 07:12:15;;;;;;;3.95;1.85;;;;;;;22.68;28.15;101344.81;5073748;28;20048;-67
2022/04/20 07:14:41;;;;;;;4.35;1.70;;;;;;;22.81;28.44;101334.03;5072040;28;20031;-67
2022/04/20 07:17:07;;;;;;;2.45;2.13;;;;;;;22.95;28.27;101341.28;5093798;28;20024;-67
2022/04/20 07:19:33;;;;;;;7.57;1.77;;;;;;;23.06;27.28;101340.75;5094174;28;20027;-67
2022/04/20 07:21:59;;;;;;;3.10;2.05;;;;;;;23.18;27.23;101336.44;5092504;28;20366;-67
2022/04/20 07:24:24;;;;;;;2.10;1.77;;;;;;;23.31;27.82;101333.78;5093908;28;20031;-68
2022/04/20 07:26:49;;;;;;;3.67;2.08;;;;;;;23.41;27.56;101339.78;5093905;28;20046;-68
2022/04/20 07:29:15;;;;;;;9.60;1.95;;;;;;;23.51;27.61;101340.25;5093973;28;20460;-67
2022/04/20 07:31:40;;;;;;;3.45;1.65;;;;;;;23.59;26.86;101345.56;5093868;28;20500;-67
2022/04/20 07:34:05;;;;;;;4.72;1.77;;;;;;;23.64;27.10;101337.63;5093844;28;20488;-67
2022/04/20 07:36:31;;;;;;;3.75;1.77;;;;;;;23.71;26.73;101338.50;5094025;28;20028;-68
2022/04/20 07:38:57;;;;;;;3.60;2.15;;;;;;;23.78;26.72;101338.53;5094303;28;20541;-68
2022/04/20 07:41:23;;;;;;;3.08;1.50;;;;;;;23.91;27.25;101344.06;5093474;28;20055;-67
2022/04/20 07:43:49;;;;;;;3.95;1.83;;;;;;;24.09;27.47;101346.25;5093828;28;20035;-67
2022/04/20 07:46:17;;;;;;;4.00;2.45;;;;;;;24.27;26.88;101349.28;5093911;28;20086;-66
2022/04/20 07:48:43;;;;;;;7.60;2.00;;;;;;;24.43;26.31;101359.03;5092880;28;20039;-68
2022/04/20 07:51:08;;;;;;;10.25;3.83;;;;;;;24.59;26.13;101362.25;5093021;28;20529;-67
2022/04/20 07:53:34;;;;;;;2.45;2.13;;;;;;;24.72;26.80;101354.03;5093345;28;20123;-67
2022/04/20 07:56:00;;;;;;;3.17;1.80;;;;;;;24.88;25.75;101361.88;5093445;28;20028;-67
2022/04/20 07:58:25;;;;;;;5.68;2.00;;;;;;;25.01;26.40;101362.94;5093441;28;20046;-67
2022/04/20 08:00:51;;;;;;;4.38;2.30;;;;;;;25.11;26.40;101353.25;5093328;28;20020;-67
2022/04/20 08:03:17;;;;;;;3.42;1.77;;;;;;;25.21;25.85;101358.31;5093527;28;20031;-67
2022/04/20 08:05:47;;;;;;;5.78;1.88;;;;;;;25.28;26.11;101354.50;5075283;28;20164;-67
2022/04/20 08:08:13;;;;;;;4.05;1.83;;;;;;;25.43;25.67;101359.75;5093467;28;20024;-68
2022/04/20 08:10:39;;;;;;;3.42;1.63;;;;;;;25.49;25.41;101361.66;5093316;28;20027;-67
2022/04/20 08:14:09;;;;;;;2.58;1.70;;;;;;;25.56;25.49;101350.69;5097142;28;20496;-67
2022/04/20 08:15:50;;;;;;;3.58;1.73;;;;;;;25.68;25.21;101360.81;5096706;28;20049;-68
2022/04/20 08:18:16;;;;;;;8.55;2.30;;;;;;;25.79;25.13;101367.53;5096858;28;20020;-67
2022/04/20 08:20:41;;;;;;;3.75;2.10;;;;;;;25.89;25.24;101359.66;5078770;28;20397;-67
2022/04/20 08:23:07;;;;;;;1.77;1.67;;;;;;;26.03;25.07;101358.56;5096442;28;20024;-67
2022/04/20 08:25:32;;;;;;;3.35;1.60;;;;;;;26.19;25.58;101351.75;5095537;28;20043;-67
2022/04/20 08:27:57;;;;;;;1.52;1.42;;;;;;;26.30;25.28;101367.56;5096802;28;20024;-67
2022/04/20 08:30:23;;;;;;;3.40;1.92;;;;;;;26.36;24.74;101364.78;5089628;28;20500;-67
2022/04/20 08:32:48;;;;;;;5.10;1.45;;;;;;;26.39;25.10;101363.50;5074604;28;20024;-67
2022/04/20 08:35:13;;;;;;;2.83;1.60;;;;;;;26.47;24.65;101361.34;5076465;28;20032;-67
2022/04/20 08:37:39;;;;;;;2.83;1.58;;;;;;;26.62;24.20;101358.28;5075270;28;20025;-67
2022/04/20 08:40:05;;;;;;;3.13;1.75;;;;;;;26.80;24.30;101355.63;5076528;28;20040;-67
2022/04/20 08:42:33;;;;;;;3.20;1.75;;;;;;;26.93;24.10;101350.06;5076563;28;20482;-67
2022/04/20 08:45:02;;;;;;;4.78;1.65;;;;;;;26.96;23.90;101355.13;5076282;28;20078;-67
2022/04/20 08:47:36;;;;;;;4.25;1.52;;;;;;;26.99;23.76;101346.41;5075032;28;20074;-67
2022/04/20 08:50:03;;;;;;;2.67;1.27;;;;;;;27.03;23.66;101355.03;5075871;28;20025;-67
2022/04/20 08:52:38;;;;;;;7.45;1.80;;;;;;;27.08;23.61;101347.00;5075557;28;20098;-67
2022/04/20 08:55:05;;;;;;;2.50;1.73;;;;;;;27.13;23.73;101355.41;5075818;28;20120;-67
2022/04/20 08:57:32;;;;;;;2.22;1.60;;;;;;;27.21;23.54;101352.38;5075506;28;20119;-67
2022/04/20 08:59:57;;;;;;;3.13;1.42;;;;;;;27.32;23.34;101364.53;5075968;28;20111;-67
2022/04/20 09:02:24;;;;;;;4.53;1.77;;;;;;;27.43;23.17;101361.06;5075701;28;20112;-68
2022/04/20 09:04:50;;;;;;;3.70;1.52;;;;;;;27.51;23.01;101352.53;5076167;28;20424;-67
2022/04/20 09:07:16;;;;;;;5.47;1.85;;;;;;;27.60;23.07;101351.16;5075610;28;20104;-67
2022/04/20 09:09:41;;;;;;;8.52;2.00;;;;;;;27.71;22.88;101348.50;5075602;28;20390;-67
2022/04/20 09:12:14;;;;;;;5.18;2.47;;;;;;;27.80;23.13;101345.44;5075705;28;20141;-68
2022/04/20 09:14:40;;;;;;;;;;;;;;;27.91;23.67;101353.78;5076275;28;20392;-67
2022/04/20 09:17:09;;;;;;;6.13;1.52;;;;;;;27.98;23.28;101343.50;5075178;28;20430;-67
2022/04/20 09:19:35;;;;;;;3.72;1.95;;;;;;;28.11;23.32;101350.81;5074543;28;20024;-67
2022/04/20 09:22:01;;;;;;;2.53;1.65;;;;;;;28.22;22.60;101350.88;5074170;28;20159;-67
2022/04/20 09:24:26;;;;;;;2.72;1.60;;;;;;;28.29;23.03;101348.84;5075658;28;20056;-67
2022/04/20 09:26:56;;;;;;;5.55;1.75;;;;;;;28.39;23.26;101347.47;5075713;28;20584;-67
2022/04/20 09:29:22;;;;;;;2.08;1.40;;;;;;;28.50;22.89;101349.41;5075438;28;20032;-67
2022/04/20 09:31:52;;;;;;;3.17;1.60;;;;;;;28.53;22.10;101347.00;5075229;28;20031;-67
2022/04/20 09:34:53;;;;;;;4.28;1.65;;;;;;;28.52;22.72;101347.25;5074381;28;20506;-66
2022/04/20 09:37:19;;;;;;;2.35;1.60;;;;;;;28.54;22.27;101347.88;5075432;28;20024;-67
2022/04/20 09:39:46;;;;;;;5.18;2.05;;;;;;;28.63;21.54;101335.47;5075662;28;20032;-67
2022/04/20 09:42:12;;;;;;;2.72;1.45;;;;;;;28.76;22.45;101338.00;5075357;28;20477;-67
2022/04/20 09:44:40;;;;;;;1.73;1.48;;;;;;;28.87;22.38;101327.00;5075256;28;20082;-67
2022/04/20 09:49:52;;;;;;;5.40;1.88;;;;;;;29.57;21.96;101320.69;5073782;28;20492;-67
2022/04/20 09:52:17;;;;;;;5.35;3.70;;;;;;;30.22;21.50;101319.34;5074288;28;20045;-67
2022/04/20 09:54:53;;;;;;;2.42;2.22;;;;;;;31.08;20.47;101318.19;5074695;28;20029;-68
2022/04/20 09:57:20;;;;;;;2.40;1.58;;;;;;;32.59;19.44;101320.25;5074890;28;20424;-68
2022/04/20 09:59:57;;;;;;;2.30;1.52;;;;;;;34.13;18.20;101330.25;5074574;28;20036;-67
2022/04/20 10:02:22;;;;;;;3.63;1.75;;;;;;;33.64;18.98;101316.63;5073246;28;20025;-67
2022/04/20 10:04:48;;;;;;;4.45;1.98;;;;;;;33.01;18.97;101322.28;5074503;28;20020;-67
2022/04/20 10:07:14;;;;;;;5.18;1.70;;;;;;;32.59;19.18;101320.25;5073206;28;20029;-67
2022/04/20 10:09:39;;;;;;;5.05;1.80;;;;;;;32.37;19.37;101316.66;5074359;28;20432;-67
2022/04/20 10:12:06;;;;;;;3.70;1.67;;;;;;;32.13;19.16;101306.97;5074350;28;20020;-68
2022/04/20 10:17:21;;;;;;;3.25;2.00;;;;;;;32.11;19.41;101309.97;5074157;28;20043;-67
2022/04/20 10:19:47;;;;;;;2.60;1.88;;;;;;;32.13;19.19;101304.19;5072922;28;20029;-68
2022/04/20 10:22:16;;;;;;;7.32;1.95;;;;;;;32.20;18.95;101299.25;5072661;28;20024;-67
2022/04/20 10:24:45;;;;;;;3.97;1.92;;;;;;;32.36;18.76;101298.31;5073143;28;20032;-68
2022/04/20 10:27:18;;;;;;;4.05;2.05;;;;;;;32.58;19.59;101304.69;5074020;28;20016;-68
2022/04/20 10:29:52;;;;;;;3.28;1.63;;;;;;;32.77;18.48;101300.44;5072756;28;20024;-68
2022/04/20 10:32:22;;;;;;;2.97;1.90;;;;;;;32.87;18.53;101296.06;5072909;28;20020;-67
2022/04/20 10:34:50;;;;;;;4.57;1.88;;;;;;;32.95;18.44;101295.56;5072519;28;20358;-68
2022/04/20 10:37:22;;;;;;;5.72;1.85;;;;;;;33.08;18.31;101303.50;5073697;28;20032;-68
2022/04/20 10:39:47;;;;;;;3.78;1.70;;;;;;;33.17;18.42;101291.59;5072470;28;20033;-68
2022/04/20 10:42:14;;;;;;;4.60;1.52;;;;;;;33.27;18.56;101283.34;5072475;28;20029;-68
2022/04/20 10:44:59;;;;;;;2.80;1.70;;;;;;;33.44;17.85;101268.44;5074041;28;20027;-67
2022/04/20 10:47:26;;;;;;;2.67;1.75;;;;;;;33.59;18.10;101272.16;5073757;28;20446;-68
2022/04/20 10:49:53;;;;;;;1.48;1.27;;;;;;;33.72;17.77;101273.59;5074207;28;20027;-67
2022/04/20 10:52:25;;;;;;;3.72;1.25;;;;;;;33.90;17.85;101279.50;5073714;28;20091;-67
2022/04/20 10:54:51;;;;;;;1.67;1.23;;;;;;;34.09;18.19;101267.94;5056296;28;20182;-67
2022/04/20 10:57:17;;;;;;;5.15;1.40;;;;;;;34.27;18.02;101262.69;5073871;28;20056;-67
2022/04/20 10:59:43;;;;;;;3.65;1.38;;;;;;;34.41;17.07;101271.31;5073784;28;20039;-68
2022/04/20 11:02:12;;;;;;;5.00;2.00;;;;;;;34.46;17.22;101260.19;5073904;28;20016;-68
2022/04/20 11:04:43;;;;;;;3.60;1.70;;;;;;;34.57;17.81;101264.69;5073018;28;20095;-67
2022/04/20 11:07:08;;;;;;;4.25;1.35;;;;;;;34.65;17.70;101272.47;5073704;28;20577;-68
2022/04/20 11:09:43;;;;;;;3.28;1.98;;;;;;;34.59;17.82;101262.47;5073732;28;20064;-67
2022/04/20 11:21:08;;;;;;;1.65;1.55;;;;;;;34.94;17.63;101248.53;5073482;28;20451;-68
2022/04/20 11:23:48;;;;;;;2.03;1.50;;;;;;;35.07;16.99;101242.41;5073386;28;20135;-67
2022/04/20 11:26:19;;;;;;;5.10;1.50;;;;;;;35.19;16.86;101244.03;5073710;28;20028;-69
2022/04/20 11:28:45;;;;;;;2.60;1.25;;;;;;;35.28;17.70;101236.78;5072475;28;20020;-67
2022/04/20 11:31:10;;;;;;;3.20;1.63;;;;;;;35.37;16.82;101238.72;5073799;28;20074;-67
2022/04/20 11:33:36;;;;;;;2.88;1.58;;;;;;;35.44;16.84;101230.03;5073627;28;20024;-67
2022/04/20 11:36:02;;;;;;;3.08;1.48;;;;;;;35.53;17.05;101228.34;5073492;28;20025;-67
2022/04/20 11:38:37;;;;;;;1.60;1.40;;;;;;;35.60;16.93;101246.44;5072247;28;20090;-68
2022/04/20 11:41:05;;;;;;;3.00;1.45;;;;;;;35.62;16.59;101233.03;5073498;28;20564;-68
2022/04/20 11:43:31;;;;;;;1.83;1.52;;;;;;;35.61;16.18;101231.41;5074109;28;20031;-68
2022/04/20 11:45:56;;;;;;;2.03;1.20;;;;;;;35.62;16.96;101240.59;5076109;28;20024;-67
2022/04/20 11:48:22;;;;;;;2.45;1.30;;;;;;;35.57;16.60;101230.28;5077367;28;20024;-68
2022/04/20 11:50:57;;;;;;;5.75;1.58;;;;;;;35.61;16.17;101222.19;5075546;28;20056;-69
2022/04/20 11:53:31;;;;;;;1.13;1.02;;;;;;;35.67;16.29;101223.84;5076432;28;20075;-68